Stations météo

Publicité
Brocken, Allemagne (10453): Température de l'air & dewpoint: 06.12.2018 01:00:00 - 12.12.2018 01:00:00 (CET)Brocken, Allemagne (10453): Température de l'air 5cm: 06.12.2018 01:00:00 - 12.12.2018 01:00:00 (CET)Brocken, Allemagne (10453): Vitesse du vent & gusts: 06.12.2018 01:00:00 - 12.12.2018 01:00:00 (CET)Brocken, Allemagne (10453): Direction du vent: 06.12.2018 01:00:00 - 12.12.2018 01:00:00 (CET)Brocken, Allemagne (10453): visibility: 06.12.2018 01:00:00 - 12.12.2018 01:00:00 (CET)Brocken, Allemagne (10453): Ensoleillement: 06.12.2018 01:00:00 - 12.12.2018 01:00:00 (CET)
Date & Time tt [°C] td [°C] tt 5cm [°C] ff [km/h] ff [knt] fx [km/h] fx [knt] dd vv [km] sd [min]
12.12.2018 01:00:00 -3,7 -4,0 -3,6 28 15 64 34 N - 0
12.12.2018 00:00:00 -3,8 -4,2 -3,7 28 15 58 31 N - 0
11.12.2018 23:00:00 -3,7 -4,0 -3,6 32 18 63 34 N - 0
11.12.2018 22:00:00 -3,7 -4,0 -3,7 40 21 63 34 NNW - 0
11.12.2018 21:00:00 -3,6 -3,9 -3,6 41 22 66 36 NNW - 0
11.12.2018 20:00:00 -3,2 -3,5 -2,7 41 22 58 31 NNW - 0
11.12.2018 19:00:00 -3,2 -3,4 -3,2 45 24 71 39 NNW - 0
11.12.2018 18:00:00 -3,3 -3,6 -3,2 45 25 75 41 NNW - 0
11.12.2018 17:00:00 -3,2 -3,4 -3,1 41 22 62 34 NNW - 0
11.12.2018 16:00:00 -3,4 -3,7 -3,4 46 25 68 37 NW - 0
11.12.2018 15:00:00 -3,4 -3,8 -3,4 51 27 71 39 NW 0,1 0
11.12.2018 14:00:00 -3,3 -3,6 -3,3 39 21 67 36 NW 0,1 0
11.12.2018 13:00:00 -3,3 -3,7 -3,4 42 23 63 34 NW 0,1 0
11.12.2018 12:00:00 -3,2 -3,5 -3,2 38 21 61 33 NW 0,1 0
11.12.2018 11:00:00 -3,2 -3,5 -3,0 44 24 72 39 NW 0,1 0
11.12.2018 10:00:00 -3,2 -3,6 -3,1 51 28 74 40 NW 0,1 0
11.12.2018 09:00:00 -3,1 -3,5 -3,0 52 28 79 42 NW 0,1 0
11.12.2018 08:00:00 -3,0 -3,3 -2,9 54 29 88 48 NW 0,1 0
11.12.2018 07:00:00 -3,0 -3,3 -2,9 53 29 90 48 NW - 0
11.12.2018 06:00:00 -3,0 -3,3 -2,8 62 33 93 50 NW - 0
11.12.2018 05:00:00 -2,9 -3,2 -2,8 54 29 89 48 NNW - 0
11.12.2018 04:00:00 -3,0 -3,3 -2,9 58 31 93 50 NW - 0
11.12.2018 03:00:00 -3,0 -3,3 -2,9 58 32 90 48 NW - 0
11.12.2018 02:00:00 -3,0 -3,3 -2,9 55 30 96 52 NW - 0
11.12.2018 01:00:00 -3,0 -3,3 -2,8 64 35 101 55 NW - 0
11.12.2018 00:00:00 -3,0 -3,3 -2,8 59 32 93 50 NW - 0
10.12.2018 23:00:00 -3,0 -3,3 -2,9 57 31 86 47 NW - 0
10.12.2018 22:00:00 -3,1 -3,5 -3,0 56 30 90 49 NW - 0
10.12.2018 21:00:00 -3,4 -3,8 -3,2 55 30 85 46 WNW - 0
10.12.2018 20:00:00 -3,4 -3,8 -3,2 53 29 81 44 WNW - 0
10.12.2018 19:00:00 -3,7 -4,2 -3,5 57 31 91 49 WNW 0,1 0
10.12.2018 18:00:00 -3,8 -4,2 -3,6 67 36 92 50 W 0,1 0
10.12.2018 17:00:00 -3,9 -4,3 -3,7 55 30 85 46 W 0,1 0
10.12.2018 16:00:00 -3,8 -4,2 -3,7 61 33 91 49 W 0,1 0
10.12.2018 15:00:00 -4,0 -4,5 -3,8 61 33 92 50 W 0,1 0
10.12.2018 14:00:00 -3,8 -4,2 -3,5 59 32 85 46 WNW 0,1 0
10.12.2018 13:00:00 -3,8 -4,2 -3,6 65 35 96 52 W 0,1 0
10.12.2018 12:00:00 -3,7 -4,1 -3,4 66 36 85 46 W 0,1 0
10.12.2018 11:00:00 -3,8 -4,2 -3,7 61 33 90 49 WNW 0,1 0
10.12.2018 10:00:00 -3,7 -4,1 -3,5 62 34 91 49 WNW 0,1 0
10.12.2018 09:00:00 -3,8 -4,2 -3,6 65 35 90 49 WNW 0,1 0
10.12.2018 08:00:00 -3,6 -4,0 -3,4 63 34 95 51 WNW 0,1 0
10.12.2018 07:00:00 -3,4 -3,8 -3,2 56 30 89 48 WNW 0,1 0
10.12.2018 06:00:00 -3,4 -3,8 -3,2 64 35 90 49 WNW 0,1 0
10.12.2018 05:00:00 -3,2 -3,4 -3,0 57 31 89 48 WNW 0,1 0
10.12.2018 04:00:00 -3,0 -3,3 -2,8 53 29 84 45 WNW 0,1 0
10.12.2018 03:00:00 -2,9 -3,1 -2,7 56 31 83 45 WNW 0,1 0
10.12.2018 02:00:00 -2,8 -3,0 -2,6 61 33 93 50 WNW 0,1 0
10.12.2018 01:00:00 -2,6 -2,8 -2,4 66 35 103 55 WNW 0,1 0
10.12.2018 00:00:00 -2,7 -2,9 -2,4 72 39 107 58 WNW 0,1 0
09.12.2018 23:00:00 -2,3 -2,5 -2,1 74 40 105 57 WNW 0,1 0
09.12.2018 22:00:00 -2,0 -2,2 -1,9 72 39 100 54 WNW 0,1 0
09.12.2018 21:00:00 -1,6 -1,7 -1,4 72 39 96 52 WNW 0,1 0
09.12.2018 20:00:00 -1,4 -1,5 -1,1 65 35 101 55 WNW - 0
09.12.2018 19:00:00 -1,0 -1,0 -0,8 61 33 97 52 WNW - 0
09.12.2018 18:00:00 -0,7 -0,7 -0,5 61 33 97 53 WNW - 0
09.12.2018 17:00:00 -0,5 -0,5 -0,2 71 38 95 51 W - 0
09.12.2018 16:00:00 -0,6 -0,6 -0,3 60 33 99 54 W - 0
09.12.2018 15:00:00 -0,7 -0,7 -0,4 71 38 96 52 W - 0
09.12.2018 14:00:00 -0,5 -0,5 -0,2 63 34 92 50 W - 0
09.12.2018 13:00:00 -0,6 -0,6 -0,2 63 34 92 50 W - 0
09.12.2018 12:00:00 -0,8 -0,8 0,0 58 31 93 50 W 0,1 0
09.12.2018 11:00:00 0,0 0,0 0,0 75 41 104 56 WSW 0,1 0
09.12.2018 10:00:00 -0,1 -0,1 0,0 68 37 99 54 WSW 0,1 0
09.12.2018 09:00:00 -0,2 -0,2 0,0 79 42 113 61 WSW 0,1 0
09.12.2018 08:00:00 -0,1 -0,1 0,0 71 39 112 61 W 0,1 0
09.12.2018 07:00:00 -0,1 -0,1 0,0 76 41 116 62 WSW 0,1 0
09.12.2018 06:00:00 -0,4 -0,4 0,0 72 39 111 60 W 0,1 0
09.12.2018 05:00:00 0,0 0,0 0,0 72 39 119 64 W - 0
09.12.2018 04:00:00 -0,1 -0,1 0,0 85 46 118 64 W - 0
09.12.2018 03:00:00 0,4 0,4 0,0 80 43 125 67 W - 0
09.12.2018 02:00:00 1,0 1,0 0,1 80 43 126 68 WSW - 0
09.12.2018 01:00:00 0,7 0,7 0,0 89 48 116 62 SW - 0
09.12.2018 00:00:00 0,1 0,1 0,0 82 44 106 58 SW - 0
08.12.2018 23:00:00 0,0 0,0 0,0 81 44 119 64 SW - 0
08.12.2018 22:00:00 -0,1 -0,1 0,0 88 47 113 61 SW 0,1 0
08.12.2018 21:00:00 -0,2 -0,2 -0,1 93 50 119 64 SW 0,1 0
08.12.2018 20:00:00 -0,2 -0,2 -0,1 85 46 120 65 WSW 0,1 0
08.12.2018 19:00:00 -0,4 -0,4 -0,2 83 45 125 68 WSW 0,1 0
08.12.2018 18:00:00 -0,2 -0,2 0,0 88 47 115 62 WSW 0,1 0
08.12.2018 17:00:00 -0,3 -0,3 -0,1 93 50 116 63 WSW 0,1 0
08.12.2018 16:00:00 -0,5 -0,5 -0,3 79 43 106 57 WSW - 0
08.12.2018 15:00:00 -0,7 -0,7 -0,5 81 44 117 63 WSW - 0
08.12.2018 14:00:00 -1,1 -1,1 -0,9 80 43 106 58 SW 0,1 0
08.12.2018 13:00:00 -1,2 -1,2 -1,0 74 40 118 64 SW 0,1 0
08.12.2018 12:00:00 -1,1 -1,1 -0,9 91 49 111 60 SW 0,1 0
08.12.2018 11:00:00 -1,2 -1,2 -1,0 77 42 112 61 SW 0,1 0
08.12.2018 10:00:00 -1,3 -1,3 -1,0 90 49 117 63 SW 0,1 0
08.12.2018 09:00:00 -1,6 -1,7 -1,4 85 46 114 61 SW 0,1 0
08.12.2018 08:00:00 -2,0 -2,1 -1,7 84 45 104 56 SW 0,1 0
08.12.2018 07:00:00 -2,2 -2,3 -1,9 79 43 111 60 SW 0,1 0
08.12.2018 06:00:00 -2,3 -2,3 -2,0 79 43 108 58 WSW 0,1 0
08.12.2018 05:00:00 -2,0 -2,1 -1,7 73 39 98 53 WSW - 0
08.12.2018 04:00:00 -1,9 -1,9 -1,6 68 37 117 63 WSW - 0
08.12.2018 03:00:00 -1,8 -1,8 -1,4 61 33 103 56 WSW - 0
08.12.2018 02:00:00 -1,5 -1,5 -1,2 74 40 109 59 W 0,1 0
08.12.2018 01:00:00 -1,1 -1,1 -0,7 72 39 110 60 W - 0
08.12.2018 00:00:00 -0,6 -0,6 -0,3 82 44 113 61 W - 0
07.12.2018 23:00:00 -0,4 -0,4 -0,1 88 47 125 67 W - 0
07.12.2018 22:00:00 2,3 2,3 2,5 96 52 118 64 SW - 0
07.12.2018 21:00:00 2,7 2,7 2,9 86 46 124 67 SW - 0
07.12.2018 20:00:00 2,7 2,7 2,9 95 52 124 67 SW - 0
07.12.2018 19:00:00 3,2 3,2 3,4 97 53 121 65 SW - 0
07.12.2018 18:00:00 3,6 3,6 3,8 91 49 112 61 SSW - 0
07.12.2018 17:00:00 3,9 3,9 4,0 72 39 95 51 SSW - 0
07.12.2018 16:00:00 4,0 4,0 4,2 73 39 103 55 SW - 0
07.12.2018 15:00:00 4,1 4,1 4,3 83 45 104 56 SW - 0
07.12.2018 14:00:00 4,1 4,1 4,4 80 43 103 56 SW - 0
07.12.2018 13:00:00 4,5 4,5 4,9 74 40 93 50 SW - 0
07.12.2018 12:00:00 4,8 4,8 5,1 70 38 94 51 SW - 0
07.12.2018 11:00:00 4,7 4,7 5,0 74 40 93 50 SW - 0
07.12.2018 10:00:00 4,9 4,9 5,1 67 36 83 45 SW - 0
07.12.2018 09:00:00 5,1 5,1 5,2 74 40 89 48 WSW 0,1 0
07.12.2018 08:00:00 5,0 5,0 5,1 69 38 86 47 WSW 0,1 0
07.12.2018 07:00:00 5,0 5,0 5,1 67 36 89 48 SW 0,1 0
07.12.2018 06:00:00 4,9 4,9 5,0 69 37 91 49 WSW - 0
07.12.2018 05:00:00 4,9 4,9 5,0 76 41 99 53 WSW - 0
07.12.2018 04:00:00 4,9 4,9 4,9 73 39 93 50 WSW - 0
07.12.2018 03:00:00 4,8 4,8 4,9 72 39 96 52 WSW - 0
07.12.2018 02:00:00 4,8 4,8 4,8 71 38 95 51 WSW - 0
07.12.2018 01:00:00 4,5 4,5 4,5 66 35 85 46 SW - 0
07.12.2018 00:00:00 4,4 4,4 4,4 64 35 85 46 SW - 0
06.12.2018 23:00:00 4,1 4,1 4,1 68 37 86 47 WSW - 0
06.12.2018 22:00:00 4,0 4,0 4,0 66 36 83 45 WSW - 0
06.12.2018 21:00:00 4,0 4,0 3,9 68 37 81 44 WSW - 0
06.12.2018 20:00:00 3,8 3,8 3,7 67 36 89 48 WSW - 0
06.12.2018 19:00:00 3,8 3,8 3,7 63 34 93 50 WSW - 0
06.12.2018 18:00:00 3,5 3,5 3,4 68 37 87 47 WSW - 0
06.12.2018 17:00:00 3,7 3,7 3,5 64 34 82 44 WSW - 0
06.12.2018 16:00:00 3,0 3,0 2,8 61 33 76 41 WSW - 0
06.12.2018 15:00:00 2,5 2,5 2,2 52 28 63 34 WSW - 0
06.12.2018 14:00:00 2,3 2,3 1,9 46 25 58 31 WSW - 0
06.12.2018 13:00:00 2,3 2,3 1,8 47 26 58 31 WSW - 0
06.12.2018 12:00:00 2,5 2,5 1,9 43 23 66 35 WSW - 0
06.12.2018 11:00:00 2,0 2,0 1,6 49 27 64 35 WSW - 0
06.12.2018 10:00:00 0,8 0,8 0,6 46 25 59 32 WSW - 0
06.12.2018 09:00:00 0,5 0,5 0,3 48 26 66 36 WSW - 0
06.12.2018 08:00:00 0,7 0,7 0,1 54 29 77 42 WSW - 0
06.12.2018 07:00:00 0,5 0,5 0,0 61 33 72 39 SW - 0
06.12.2018 06:00:00 0,6 0,6 0,0 59 32 72 39 SW - 0
06.12.2018 05:00:00 -0,4 -0,4 -0,5 54 29 74 40 SW - 0
06.12.2018 04:00:00 -0,8 -0,8 -0,6 61 33 74 40 SSW - 0
06.12.2018 03:00:00 -0,7 -0,7 -0,6 63 34 82 44 SW - 0
06.12.2018 02:00:00 -1,1 -1,1 -1,0 66 36 82 44 SSW - 0
06.12.2018 01:00:00 -1,0 -1,0 -0,7 67 36 81 44 SSW - 0

tt = Température de l'air
td = dewpoint
tt 5cm = Température de l'air 5cm
ff = Vitesse du vent
fx = gusts
dd = Direction du vent
vv = visibility
sd = Ensoleillement

stations d'obs. à proximité